createdAt,value
2018-09-06T00:01:43.597Z,16.50
2018-09-06T00:04:12.892Z,16.50
2018-09-06T00:06:42.042Z,16.50
2018-09-06T00:09:11.298Z,16.50
2018-09-06T00:11:40.448Z,16.50
2018-09-06T00:14:09.723Z,16.50
2018-09-06T00:16:38.802Z,16.40
2018-09-06T00:19:07.922Z,16.40
2018-09-06T00:21:37.122Z,16.40
2018-09-06T00:24:06.360Z,16.40
2018-09-06T00:26:35.524Z,16.40
2018-09-06T00:29:04.701Z,16.40
2018-09-06T00:31:33.787Z,16.40
2018-09-06T00:34:02.994Z,16.50
2018-09-06T00:36:32.095Z,16.50
2018-09-06T00:39:01.281Z,16.50
2018-09-06T00:41:30.645Z,16.50
2018-09-06T00:43:59.775Z,16.50
2018-09-06T00:46:28.831Z,16.60
2018-09-06T00:48:57.921Z,16.60
2018-09-06T00:51:27.068Z,16.60
2018-09-06T00:53:56.207Z,16.70
2018-09-06T00:56:25.340Z,16.70
2018-09-06T00:58:54.453Z,16.70
2018-09-06T01:01:23.558Z,16.70
2018-09-06T01:03:52.847Z,16.70
2018-09-06T01:06:22.025Z,16.70
2018-09-06T01:08:51.213Z,16.70
2018-09-06T01:11:20.274Z,16.60
2018-09-06T01:13:49.479Z,16.60
2018-09-06T01:16:18.635Z,16.60
2018-09-06T01:18:47.726Z,16.60
2018-09-06T01:21:16.868Z,16.60
2018-09-06T01:23:45.926Z,16.50
2018-09-06T01:26:15.056Z,16.50
2018-09-06T01:28:44.139Z,16.40
2018-09-06T01:31:13.285Z,16.30
2018-09-06T01:33:42.420Z,16.30
2018-09-06T01:36:16.971Z,16.20
2018-09-06T01:38:46.090Z,16.20
2018-09-06T01:41:15.143Z,16.10
2018-09-06T01:43:44.375Z,16.10
2018-09-06T01:46:13.522Z,16.00
2018-09-06T01:48:42.694Z,16.00
2018-09-06T01:51:11.959Z,16.00
2018-09-06T01:53:41.355Z,15.90
2018-09-06T01:56:10.727Z,15.90
2018-09-06T01:58:40.486Z,15.90
2018-09-06T02:01:09.707Z,15.90
2018-09-06T02:03:38.830Z,15.90
2018-09-06T02:06:08.506Z,15.90
2018-09-06T02:08:37.574Z,15.80
2018-09-06T02:11:06.748Z,15.80
2018-09-06T02:13:36.062Z,15.70
2018-09-06T02:16:05.237Z,15.70
2018-09-06T02:18:34.922Z,15.70
2018-09-06T02:21:04.022Z,15.70
2018-09-06T02:23:33.359Z,15.60
2018-09-06T02:26:02.534Z,15.60
2018-09-06T02:28:31.832Z,15.60
2018-09-06T02:31:01.032Z,15.60
2018-09-06T02:33:30.307Z,15.60
2018-09-06T02:35:59.456Z,15.60
2018-09-06T02:38:28.655Z,15.60
2018-09-06T02:40:57.899Z,15.60
2018-09-06T02:43:27.020Z,15.50
2018-09-06T02:45:56.235Z,15.50
2018-09-06T02:48:30.724Z,15.50
2018-09-06T02:51:05.288Z,15.50
2018-09-06T02:53:34.606Z,15.50
2018-09-06T02:56:03.919Z,15.40
2018-09-06T02:58:33.166Z,15.40
2018-09-06T03:01:02.413Z,15.40
2018-09-06T03:03:31.657Z,15.40
2018-09-06T03:06:00.752Z,15.40
2018-09-06T03:08:30.002Z,15.30
2018-09-06T03:11:02.379Z,15.30
2018-09-06T03:13:31.512Z,15.20
2018-09-06T03:16:01.341Z,15.20
2018-09-06T03:18:30.513Z,15.20
2018-09-06T03:20:59.621Z,15.30
2018-09-06T03:23:28.766Z,15.20
2018-09-06T03:25:57.932Z,15.20
2018-09-06T03:28:27.682Z,15.20
2018-09-06T03:30:56.929Z,15.20
2018-09-06T03:33:26.162Z,15.20
2018-09-06T03:35:55.491Z,15.20
2018-09-06T03:38:24.650Z,15.20
2018-09-06T03:40:53.827Z,15.10
2018-09-06T03:43:22.975Z,15.10
2018-09-06T03:45:52.132Z,15.10
2018-09-06T03:48:21.314Z,15.10
2018-09-06T03:50:50.403Z,15.10
2018-09-06T03:53:19.643Z,15.10
2018-09-06T03:55:48.953Z,15.10
2018-09-06T03:58:19.023Z,15.10
2018-09-06T04:00:48.316Z,15.10
2018-09-06T04:03:17.394Z,15.10
2018-09-06T04:05:46.927Z,15.00
2018-09-06T04:08:16.072Z,15.00
2018-09-06T04:10:45.248Z,15.00
2018-09-06T04:13:14.416Z,15.00
2018-09-06T04:15:43.557Z,14.90
2018-09-06T04:18:12.683Z,15.00
2018-09-06T04:20:41.805Z,15.00
2018-09-06T04:23:11.077Z,15.00
2018-09-06T04:25:40.317Z,15.00
2018-09-06T04:28:09.553Z,15.00
2018-09-06T04:30:39.018Z,15.00
2018-09-06T04:33:08.363Z,15.00
2018-09-06T04:35:37.582Z,15.00
2018-09-06T04:38:07.056Z,15.00
2018-09-06T04:40:36.215Z,14.90
2018-09-06T04:43:05.433Z,14.90
2018-09-06T04:45:34.637Z,14.90
2018-09-06T04:48:03.780Z,14.90
2018-09-06T04:50:32.910Z,14.90
2018-09-06T04:53:02.169Z,14.90
2018-09-06T04:55:31.275Z,14.90
2018-09-06T04:58:00.467Z,14.90
2018-09-06T05:00:29.774Z,15.00
2018-09-06T05:02:58.995Z,15.00
2018-09-06T05:05:28.278Z,15.00
2018-09-06T05:07:57.489Z,15.00
2018-09-06T05:10:26.650Z,15.00
2018-09-06T05:12:55.805Z,15.00
2018-09-06T05:15:25.520Z,15.10
2018-09-06T05:17:54.672Z,15.10
2018-09-06T05:20:23.922Z,15.10
2018-09-06T05:22:53.243Z,15.10
2018-09-06T05:25:22.408Z,15.10
2018-09-06T05:27:52.753Z,15.20
2018-09-06T05:30:22.439Z,15.20
2018-09-06T05:32:51.736Z,15.20
2018-09-06T05:35:21.359Z,15.20
2018-09-06T05:37:51.020Z,15.20
2018-09-06T05:40:20.263Z,15.20
2018-09-06T05:42:49.933Z,15.30
2018-09-06T05:45:19.107Z,15.40
2018-09-06T05:47:53.823Z,15.40
2018-09-06T05:50:23.091Z,15.50
2018-09-06T05:52:52.531Z,15.50
2018-09-06T05:55:22.122Z,15.50
2018-09-06T05:57:57.751Z,15.50
2018-09-06T06:00:32.107Z,15.50
2018-09-06T06:03:03.268Z,15.60
2018-09-06T06:05:32.363Z,15.60
2018-09-06T06:08:18.548Z,15.70
2018-09-06T06:10:47.730Z,15.70
2018-09-06T06:13:17.537Z,15.80
2018-09-06T06:15:46.765Z,15.90
2018-09-06T06:18:15.945Z,16.00
2018-09-06T06:20:45.147Z,16.00
2018-09-06T06:23:14.361Z,16.00
2018-09-06T06:25:43.425Z,16.10
2018-09-06T06:28:12.552Z,16.10
2018-09-06T06:30:41.688Z,16.20
2018-09-06T06:33:10.889Z,16.20
2018-09-06T06:35:40.026Z,16.20
2018-09-06T06:38:09.153Z,16.40
2018-09-06T06:40:38.395Z,16.50
2018-09-06T06:43:07.532Z,16.60
2018-09-06T06:45:36.748Z,16.60
2018-09-06T06:48:05.855Z,16.70
2018-09-06T06:50:35.025Z,16.80
2018-09-06T06:53:04.124Z,16.80
2018-09-06T06:55:33.544Z,16.90
2018-09-06T06:58:02.912Z,16.90
2018-09-06T07:00:36.205Z,17.10
2018-09-06T07:03:05.337Z,17.10
2018-09-06T07:05:34.575Z,17.10
2018-09-06T07:08:03.728Z,17.20
2018-09-06T07:10:33.067Z,17.30
2018-09-06T07:13:02.362Z,17.40
2018-09-06T07:15:31.552Z,17.40
2018-09-06T07:18:00.822Z,17.50
2018-09-06T07:20:30.025Z,17.60
2018-09-06T07:22:59.138Z,17.70
2018-09-06T07:25:28.519Z,17.60
2018-09-06T07:27:57.775Z,17.70
2018-09-06T07:30:26.943Z,17.90
2018-09-06T07:32:57.077Z,18.00
2018-09-06T07:35:26.159Z,17.90
2018-09-06T07:37:55.333Z,17.90
2018-09-06T07:40:24.771Z,17.90
2018-09-06T07:42:53.998Z,18.00
2018-09-06T07:45:23.169Z,18.10
2018-09-06T07:47:52.251Z,18.10
2018-09-06T07:50:21.302Z,18.10
2018-09-06T07:52:50.342Z,18.00
2018-09-06T07:55:19.548Z,18.00
2018-09-06T07:57:48.690Z,17.90
2018-09-06T08:00:17.771Z,17.90
2018-09-06T08:02:46.865Z,17.90
2018-09-06T08:05:16.101Z,17.90
2018-09-06T08:07:45.198Z,17.90
2018-09-06T08:10:14.426Z,17.90
2018-09-06T08:12:43.710Z,18.00
2018-09-06T08:15:13.007Z,18.10
2018-09-06T08:17:42.240Z,18.20
2018-09-06T08:20:11.435Z,18.30
2018-09-06T08:22:40.634Z,18.30
2018-09-06T08:25:09.802Z,18.40
2018-09-06T08:27:38.993Z,18.50
2018-09-06T08:30:08.206Z,18.60
2018-09-06T08:32:37.296Z,18.80
2018-09-06T08:35:06.413Z,18.80
2018-09-06T08:37:35.628Z,19.00
2018-09-06T08:40:04.788Z,19.00
2018-09-06T08:42:33.957Z,19.00
2018-09-06T08:45:03.121Z,19.00
2018-09-06T08:47:32.283Z,19.10
2018-09-06T08:50:01.391Z,19.30
2018-09-06T08:52:30.657Z,19.30
2018-09-06T08:54:59.811Z,19.30
2018-09-06T08:57:29.091Z,19.40
2018-09-06T08:59:58.234Z,19.40
2018-09-06T09:02:27.377Z,19.50
2018-09-06T09:04:56.517Z,19.60
2018-09-06T09:07:25.889Z,19.70
2018-09-06T09:09:55.159Z,19.80
2018-09-06T09:12:24.613Z,19.90
2018-09-06T09:14:53.857Z,20.00
2018-09-06T09:17:23.941Z,20.10
2018-09-06T09:19:54.039Z,20.10
2018-09-06T09:22:23.212Z,20.20
2018-09-06T09:24:52.345Z,20.20
2018-09-06T09:27:21.694Z,20.30
2018-09-06T09:29:50.889Z,20.40
2018-09-06T09:32:20.028Z,20.60
2018-09-06T09:34:49.244Z,20.70
2018-09-06T09:37:18.464Z,20.80
2018-09-06T09:39:47.579Z,20.90
2018-09-06T09:42:16.805Z,20.90
2018-09-06T09:44:45.910Z,21.10
2018-09-06T09:49:43.302Z,21.30
2018-09-06T09:52:12.350Z,21.40
2018-09-06T09:54:41.468Z,21.30
2018-09-06T09:57:10.689Z,21.40
2018-09-06T09:59:39.850Z,21.50
2018-09-06T10:02:14.235Z,21.50
2018-09-06T10:04:48.766Z,21.50
2018-09-06T10:07:24.081Z,21.50
2018-09-06T10:09:53.264Z,21.60
2018-09-06T10:12:22.414Z,21.60
2018-09-06T10:14:51.669Z,21.60
2018-09-06T10:17:20.792Z,21.70
2018-09-06T10:19:49.969Z,21.80
2018-09-06T10:22:19.247Z,21.90
2018-09-06T10:24:48.801Z,22.00
2018-09-06T10:27:17.921Z,22.20
2018-09-06T10:29:47.104Z,22.30
2018-09-06T10:32:16.425Z,22.40
2018-09-06T10:34:45.590Z,22.40
2018-09-06T10:37:15.193Z,22.40
2018-09-06T10:39:44.606Z,22.50
2018-09-06T10:42:13.802Z,22.70
2018-09-06T10:44:43.089Z,22.80
2018-09-06T10:47:12.535Z,22.80
2018-09-06T10:49:42.379Z,22.80
2018-09-06T10:52:12.092Z,22.70
2018-09-06T10:54:41.315Z,22.80
2018-09-06T10:57:10.698Z,23.00
2018-09-06T10:59:40.095Z,23.10
2018-09-06T11:02:09.414Z,23.10
2018-09-06T11:04:39.523Z,23.10
2018-09-06T11:07:09.272Z,23.20
2018-09-06T11:09:38.928Z,23.20
2018-09-06T11:12:08.082Z,23.30
2018-09-06T11:14:37.386Z,23.30
2018-09-06T11:17:06.588Z,23.40
2018-09-06T11:19:35.726Z,23.50
2018-09-06T11:22:05.483Z,23.50
2018-09-06T11:24:34.670Z,23.50
2018-09-06T11:27:03.919Z,23.60
2018-09-06T11:29:33.029Z,23.70
2018-09-06T11:32:02.234Z,23.80
2018-09-06T11:34:31.480Z,24.00
2018-09-06T11:37:00.663Z,24.30
2018-09-06T11:39:29.916Z,24.40
2018-09-06T11:41:59.421Z,24.40
2018-09-06T11:44:29.797Z,24.40
2018-09-06T11:46:59.861Z,24.50
2018-09-06T11:49:29.084Z,24.40
2018-09-06T11:51:58.200Z,24.40
2018-09-06T11:54:27.312Z,24.50
2018-09-06T11:56:56.476Z,24.50
2018-09-06T11:59:25.747Z,24.50
2018-09-06T12:01:55.069Z,24.60
2018-09-06T12:04:24.382Z,24.80
2018-09-06T12:06:53.828Z,25.00
2018-09-06T12:09:23.071Z,25.20
2018-09-06T12:11:52.273Z,25.40
2018-09-06T12:14:21.754Z,25.30
2018-09-06T12:16:51.105Z,25.20
2018-09-06T12:19:44.424Z,25.30
2018-09-06T12:22:13.690Z,25.10
2018-09-06T12:42:47.820Z,25.00
2018-09-06T12:45:16.991Z,25.10
2018-09-06T12:47:46.171Z,25.30
2018-09-06T12:50:15.452Z,25.40
2018-09-06T12:52:44.650Z,25.40
2018-09-06T12:55:16.924Z,25.50
2018-09-06T12:57:46.066Z,25.50
2018-09-06T13:05:20.963Z,25.50
2018-09-06T13:07:50.097Z,25.50
2018-09-06T13:10:19.406Z,25.60
2018-09-06T13:12:48.544Z,25.60
2018-09-06T13:15:17.792Z,25.60
2018-09-06T13:17:46.976Z,25.50
2018-09-06T13:20:16.715Z,25.40
2018-09-06T13:22:46.087Z,25.20
2018-09-06T13:25:15.193Z,25.10
2018-09-06T13:27:44.413Z,25.10
2018-09-06T13:30:13.631Z,25.10
2018-09-06T13:32:42.855Z,25.00
2018-09-06T13:35:12.041Z,24.90
2018-09-06T13:37:41.213Z,24.80
2018-09-06T13:40:10.270Z,24.90
2018-09-06T13:42:39.705Z,24.80
2018-09-06T13:45:09.223Z,25.00
2018-09-06T13:47:38.448Z,25.20
2018-09-06T13:50:07.663Z,25.30
2018-09-06T13:52:36.910Z,25.30
2018-09-06T13:55:06.071Z,25.40
2018-09-06T13:57:35.259Z,25.40
2018-09-06T14:00:04.634Z,25.40
2018-09-06T14:02:33.866Z,25.40
2018-09-06T14:05:03.225Z,25.30
2018-09-06T14:07:32.501Z,25.30
2018-09-06T14:10:01.816Z,25.30
2018-09-06T14:12:31.303Z,25.20
2018-09-06T14:15:00.366Z,25.20
2018-09-06T14:17:29.728Z,25.20
2018-09-06T14:19:59.061Z,25.20
2018-09-06T14:22:28.691Z,25.20
2018-09-06T14:24:58.279Z,25.20
2018-09-06T14:27:28.086Z,25.20
2018-09-06T14:29:57.439Z,25.20
2018-09-06T14:32:30.271Z,25.10
2018-09-06T14:34:59.894Z,25.10
2018-09-06T14:37:30.038Z,25.10
2018-09-06T14:39:59.792Z,25.20
2018-09-06T14:42:30.208Z,25.20
2018-09-06T14:44:59.755Z,25.20
2018-09-06T14:47:30.003Z,25.20
2018-09-06T14:50:00.189Z,25.30
2018-09-06T14:52:29.495Z,25.30
2018-09-06T14:54:58.672Z,25.20
2018-09-06T14:57:27.950Z,25.40
2018-09-06T14:59:57.222Z,25.40
2018-09-06T15:02:26.474Z,25.50
2018-09-06T15:04:55.601Z,25.40
2018-09-06T15:07:24.920Z,25.40
2018-09-06T15:09:54.066Z,25.50
2018-09-06T15:12:23.219Z,25.50
2018-09-06T15:14:52.377Z,25.40
2018-09-06T15:17:21.809Z,25.40
2018-09-06T15:19:50.992Z,25.40
2018-09-06T15:22:20.227Z,25.50
2018-09-06T15:24:49.398Z,25.50
2018-09-06T15:27:18.625Z,25.60
2018-09-06T15:29:48.910Z,25.60
2018-09-06T15:32:19.076Z,25.50
2018-09-06T15:34:48.359Z,25.50
2018-09-06T15:37:18.082Z,25.40
2018-09-06T15:39:47.705Z,25.40
2018-09-06T15:42:17.561Z,25.40
2018-09-06T15:44:47.976Z,25.40
2018-09-06T15:47:17.839Z,25.40
2018-09-06T15:49:48.467Z,25.40
2018-09-06T15:52:17.884Z,25.50
2018-09-06T15:54:47.783Z,25.50
2018-09-06T15:57:17.148Z,25.40
2018-09-06T15:59:46.424Z,25.50
2018-09-06T16:02:15.709Z,25.60
2018-09-06T16:04:45.577Z,25.60
2018-09-06T16:07:15.579Z,25.70
2018-09-06T16:09:45.191Z,25.80
2018-09-06T16:12:14.658Z,25.80
2018-09-06T16:14:43.853Z,25.90
2018-09-06T16:17:13.126Z,25.70
2018-09-06T16:19:42.452Z,25.60
2018-09-06T16:22:11.507Z,25.60
2018-09-06T16:24:40.638Z,25.50
2018-09-06T16:27:09.821Z,25.40
2018-09-06T16:29:39.086Z,25.20
2018-09-06T16:32:44.267Z,25.20
2018-09-06T16:35:15.390Z,25.10
2018-09-06T16:37:44.719Z,25.00
2018-09-06T16:40:14.063Z,24.90
2018-09-06T16:42:44.243Z,24.90
2018-09-06T16:45:14.998Z,24.80
2018-09-06T16:47:44.235Z,24.70
2018-09-06T16:50:13.492Z,24.70
2018-09-06T16:52:42.761Z,24.50
2018-09-06T16:55:12.074Z,24.50
2018-09-06T16:57:41.240Z,24.40
2018-09-06T17:00:10.398Z,24.40
2018-09-06T17:02:39.660Z,24.40
2018-09-06T17:05:08.825Z,24.30
2018-09-06T17:07:38.362Z,24.30
2018-09-06T17:10:07.461Z,24.30
2018-09-06T17:12:36.616Z,24.30
2018-09-06T17:15:05.793Z,24.20
2018-09-06T17:17:35.041Z,24.20
2018-09-06T17:20:04.342Z,24.10
2018-09-06T17:22:33.480Z,24.10
2018-09-06T17:25:02.731Z,24.10
2018-09-06T17:27:31.952Z,24.10
2018-09-06T17:30:01.860Z,24.00
2018-09-06T17:32:31.166Z,23.90
2018-09-06T17:35:00.470Z,23.90
2018-09-06T17:37:29.703Z,23.80
2018-09-06T17:40:01.918Z,23.80
2018-09-06T17:42:32.260Z,23.70
2018-09-06T17:45:01.850Z,23.70
2018-09-06T17:47:31.582Z,23.60
2018-09-06T17:50:00.889Z,23.60
2018-09-06T17:52:31.146Z,23.50
2018-09-06T17:55:00.451Z,23.30
2018-09-06T17:57:29.763Z,23.20
2018-09-06T17:59:58.980Z,23.10
2018-09-06T18:02:28.120Z,23.00
2018-09-06T18:04:57.233Z,22.80
2018-09-06T18:07:26.353Z,22.80
2018-09-06T18:09:55.512Z,22.60
2018-09-06T18:12:24.703Z,22.30
2018-09-06T18:14:53.919Z,22.20
2018-09-06T18:17:23.095Z,22.20
2018-09-06T18:19:53.025Z,22.10
2018-09-06T18:22:22.241Z,22.10
2018-09-06T18:24:51.487Z,22.10
2018-09-06T18:27:20.888Z,22.10
2018-09-06T18:29:50.069Z,22.00
2018-09-06T18:32:19.181Z,22.00
2018-09-06T18:34:48.459Z,21.90
2018-09-06T18:37:18.526Z,21.80
2018-09-06T18:39:47.915Z,21.70
2018-09-06T18:42:17.177Z,21.70
2018-09-06T18:44:46.461Z,21.70
2018-09-06T18:47:15.910Z,21.60
2018-09-06T18:49:45.303Z,21.60
2018-09-06T18:52:15.028Z,21.60
2018-09-06T18:54:45.673Z,21.60
2018-09-06T18:57:15.108Z,21.60
2018-09-06T18:59:44.639Z,21.50
2018-09-06T19:02:14.209Z,21.50
2018-09-06T19:04:43.427Z,21.30
2018-09-06T19:07:13.192Z,21.20
2018-09-06T19:09:42.712Z,21.10
2018-09-06T19:12:12.122Z,21.10
2018-09-06T19:14:41.750Z,21.00
2018-09-06T19:17:15.495Z,20.90
2018-09-06T19:19:44.956Z,20.90
2018-09-06T19:22:14.501Z,20.90
2018-09-06T19:24:43.919Z,20.80
2018-09-06T19:27:13.672Z,20.80
2018-09-06T19:29:43.021Z,20.60
2018-09-06T19:32:12.324Z,20.60
2018-09-06T19:34:41.510Z,20.50
2018-09-06T19:37:10.807Z,20.50
2018-09-06T19:39:40.142Z,20.50
2018-09-06T19:42:09.392Z,20.50
2018-09-06T19:44:38.575Z,20.60
2018-09-06T19:47:07.834Z,20.60
2018-09-06T19:49:37.129Z,20.50
2018-09-06T19:52:06.329Z,20.50
2018-09-06T19:54:35.537Z,20.60
2018-09-06T19:57:04.743Z,20.60
2018-09-06T19:59:34.098Z,20.60
2018-09-06T20:02:03.551Z,20.50
2018-09-06T20:04:32.714Z,20.50
2018-09-06T20:07:01.889Z,20.50
2018-09-06T20:09:31.073Z,20.50
2018-09-06T20:12:00.242Z,20.50
2018-09-06T20:14:29.465Z,20.50
2018-09-06T20:16:58.621Z,20.50
2018-09-06T20:19:27.804Z,20.50
2018-09-06T20:21:57.332Z,20.40
2018-09-06T20:24:26.782Z,20.40
2018-09-06T20:26:56.042Z,20.40
2018-09-06T20:29:25.613Z,20.40
2018-09-06T20:31:54.829Z,20.40
2018-09-06T20:34:23.970Z,20.30
2018-09-06T20:36:53.529Z,20.20
2018-09-06T20:39:22.631Z,20.00
2018-09-06T20:41:51.802Z,20.20
2018-09-06T20:44:21.701Z,20.20
2018-09-06T20:46:51.322Z,20.20
2018-09-06T20:49:20.424Z,20.30
2018-09-06T20:51:49.746Z,20.30
2018-09-06T20:54:18.961Z,20.30
2018-09-06T20:56:48.079Z,20.30
2018-09-06T20:59:17.282Z,20.20
2018-09-06T21:01:46.644Z,20.20
2018-09-06T21:04:15.801Z,20.20
2018-09-06T21:06:44.968Z,20.20
2018-09-06T21:09:14.176Z,20.10
2018-09-06T21:11:43.461Z,20.00
2018-09-06T21:14:12.620Z,20.00
2018-09-06T21:16:41.757Z,20.00
2018-09-06T21:19:17.222Z,20.00
2018-09-06T21:21:46.293Z,20.00
2018-09-06T21:24:15.371Z,20.00
2018-09-06T21:26:44.525Z,20.00
2018-09-06T21:29:13.606Z,20.00
2018-09-06T21:31:42.743Z,20.00
2018-09-06T21:34:11.856Z,19.90
2018-09-06T21:36:41.087Z,19.90
2018-09-06T21:39:13.571Z,19.90
2018-09-06T21:41:43.432Z,19.90
2018-09-06T21:44:12.654Z,19.80
2018-09-06T21:46:42.134Z,19.60
2018-09-06T21:49:11.399Z,19.60
2018-09-06T21:51:40.569Z,19.50
2018-09-06T21:54:09.841Z,19.40
2018-09-06T21:56:39.082Z,19.40
2018-09-06T21:59:08.404Z,19.40
2018-09-06T22:01:37.667Z,19.30
2018-09-06T22:04:07.979Z,19.30
2018-09-06T22:06:38.124Z,19.40
2018-09-06T22:09:11.447Z,19.40
2018-09-06T22:11:40.694Z,19.40
2018-09-06T22:14:10.096Z,19.20
2018-09-06T22:17:42.501Z,19.20
2018-09-06T22:20:11.664Z,19.20
2018-09-06T22:22:40.886Z,19.20
2018-09-06T22:25:10.005Z,19.30
2018-09-06T22:27:39.109Z,19.20
2018-09-06T22:30:08.243Z,19.20
2018-09-06T22:32:37.345Z,19.20
2018-09-06T22:35:06.887Z,19.20
2018-09-06T22:37:35.997Z,19.20
2018-09-06T22:40:05.177Z,19.20
2018-09-06T22:42:34.225Z,19.20
2018-09-06T22:45:03.568Z,19.20
2018-09-06T22:47:32.616Z,19.20
2018-09-06T22:50:01.732Z,19.30
2018-09-06T22:52:30.876Z,19.20
2018-09-06T22:54:59.967Z,19.20
2018-09-06T22:57:29.109Z,19.20
2018-09-06T22:59:58.237Z,19.20
2018-09-06T23:02:32.691Z,19.20
2018-09-06T23:05:01.836Z,19.20
2018-09-06T23:07:31.194Z,19.20
2018-09-06T23:10:00.841Z,19.20
2018-09-06T23:12:29.876Z,19.20
2018-09-06T23:14:59.020Z,19.10
2018-09-06T23:17:29.177Z,19.10
2018-09-06T23:19:58.327Z,19.10
2018-09-06T23:22:27.437Z,19.10
2018-09-06T23:24:56.579Z,19.10
2018-09-06T23:27:26.752Z,19.10
2018-09-06T23:29:56.070Z,19.10
2018-09-06T23:32:25.300Z,19.10
2018-09-06T23:34:54.631Z,19.00
2018-09-06T23:37:23.749Z,19.00
2018-09-06T23:39:52.826Z,19.00
2018-09-06T23:42:24.563Z,19.00
2018-09-06T23:44:55.348Z,18.90
2018-09-06T23:47:24.508Z,18.90
2018-09-06T23:49:53.746Z,19.00
2018-09-06T23:52:22.981Z,19.10
2018-09-06T23:54:52.171Z,19.00
2018-09-06T23:57:21.471Z,19.00
2018-09-06T23:59:50.549Z,19.00
